createdAt,value
2023-03-07T00:04:20.248Z,25.40
2023-03-07T00:09:19.805Z,25.30
2023-03-07T00:14:19.705Z,26.60
2023-03-07T00:19:19.597Z,25.40
2023-03-07T00:24:19.626Z,27.30
2023-03-07T00:29:19.552Z,28.70
2023-03-07T00:34:19.395Z,24.80
2023-03-07T00:39:19.349Z,26.60
2023-03-07T00:44:19.285Z,27.30
2023-03-07T00:49:19.324Z,26.60
2023-03-07T00:54:19.129Z,24.50
2023-03-07T00:59:19.057Z,24.40
2023-03-07T01:04:19.395Z,25.00
2023-03-07T01:09:18.990Z,27.30
2023-03-07T01:14:18.962Z,26.00
2023-03-07T01:19:19.132Z,24.70
2023-03-07T01:24:18.814Z,24.00
2023-03-07T01:29:18.756Z,26.00
2023-03-07T01:34:18.654Z,24.80
2023-03-07T01:39:18.632Z,28.30
2023-03-07T01:44:18.516Z,28.00
2023-03-07T01:49:18.429Z,27.00
2023-03-07T01:54:18.364Z,25.10
2023-03-07T01:59:18.296Z,27.00
2023-03-07T02:04:18.268Z,28.50
2023-03-07T02:09:18.211Z,28.60
2023-03-07T02:14:18.131Z,28.30
2023-03-07T02:19:18.222Z,27.90
2023-03-07T02:24:18.026Z,29.40
2023-03-07T02:29:18.003Z,28.20
2023-03-07T02:34:17.827Z,30.50
2023-03-07T02:39:17.853Z,26.90
2023-03-07T02:44:17.694Z,25.80
2023-03-07T02:49:17.667Z,26.20
2023-03-07T02:54:17.752Z,24.00
2023-03-07T02:59:17.480Z,26.00
2023-03-07T03:04:17.460Z,24.60
2023-03-07T03:09:17.377Z,25.60
2023-03-07T03:14:17.386Z,24.40
2023-03-07T03:19:17.345Z,25.20
2023-03-07T03:24:17.200Z,25.60
2023-03-07T03:29:17.131Z,22.90
2023-03-07T03:34:17.175Z,22.80
2023-03-07T03:39:16.990Z,25.90
2023-03-07T03:44:16.969Z,23.70
2023-03-07T03:49:16.994Z,23.00
2023-03-07T03:54:16.874Z,24.50
2023-03-07T03:59:16.824Z,24.00
2023-03-07T04:04:16.777Z,23.90
2023-03-07T04:09:16.687Z,21.90
2023-03-07T04:14:16.603Z,23.30
2023-03-07T04:19:16.582Z,22.70
2023-03-07T04:24:16.545Z,20.80
2023-03-07T04:29:16.347Z,21.50
2023-03-07T04:34:16.380Z,21.80
2023-03-07T04:39:16.242Z,23.90
2023-03-07T04:44:16.131Z,21.70
2023-03-07T04:49:16.114Z,21.80
2023-03-07T04:54:16.015Z,22.20
2023-03-07T04:59:15.975Z,20.60
2023-03-07T05:04:15.998Z,23.00
2023-03-07T05:09:15.817Z,20.00
2023-03-07T05:14:15.748Z,21.50
2023-03-07T05:19:15.784Z,20.00
2023-03-07T05:24:15.637Z,21.10
2023-03-07T05:29:15.571Z,21.80
2023-03-07T05:34:15.538Z,20.20
2023-03-07T05:39:15.412Z,22.20
2023-03-07T05:44:15.393Z,20.70
2023-03-07T05:49:15.311Z,21.50
2023-03-07T05:54:15.225Z,21.80
2023-03-07T05:59:15.192Z,19.60
2023-03-07T06:04:15.099Z,20.70
2023-03-07T06:09:15.053Z,19.10
2023-03-07T06:14:14.975Z,19.20
2023-03-07T06:19:14.921Z,18.40
2023-03-07T06:24:14.854Z,16.10
2023-03-07T06:29:14.769Z,17.80
2023-03-07T06:34:14.748Z,19.50
2023-03-07T06:39:14.712Z,17.80
2023-03-07T06:44:14.581Z,17.50
2023-03-07T06:49:14.594Z,18.80
2023-03-07T06:54:15.276Z,16.50
2023-03-07T06:59:14.437Z,18.80
2023-03-07T07:04:14.373Z,17.60
2023-03-07T07:09:14.313Z,18.30
2023-03-07T07:14:14.245Z,17.30
2023-03-07T07:19:14.212Z,16.10
2023-03-07T07:24:14.066Z,16.00
2023-03-07T07:29:13.982Z,16.40
2023-03-07T07:34:13.990Z,16.40
2023-03-07T07:39:13.856Z,16.40
2023-03-07T07:44:13.837Z,14.60
2023-03-07T07:49:13.734Z,14.80
2023-03-07T07:54:13.694Z,15.10
2023-03-07T07:59:13.630Z,11.70
2023-03-07T08:04:13.571Z,12.90
2023-03-07T08:09:13.514Z,13.30
2023-03-07T08:14:13.439Z,11.50
2023-03-07T08:19:13.338Z,11.90
2023-03-07T08:24:13.304Z,12.00
2023-03-07T08:29:13.223Z,11.30
2023-03-07T08:34:13.152Z,11.30
2023-03-07T08:39:13.136Z,10.60
2023-03-07T08:44:13.045Z,10.30
2023-03-07T08:49:13.089Z,9.50
2023-03-07T08:54:12.907Z,8.80
2023-03-07T08:59:12.819Z,7.30
2023-03-07T09:04:12.796Z,8.90
2023-03-07T09:09:12.715Z,8.00
2023-03-07T09:14:12.646Z,7.40
2023-03-07T09:19:12.562Z,7.80
2023-03-07T09:24:12.513Z,8.00
2023-03-07T09:29:12.429Z,9.80
2023-03-07T09:34:12.369Z,8.80
2023-03-07T09:39:12.305Z,7.40
2023-03-07T09:44:12.293Z,6.50
2023-03-07T09:49:12.155Z,7.60
2023-03-07T09:54:12.116Z,6.40
2023-03-07T09:59:22.458Z,6.90
2023-03-07T10:04:12.993Z,7.30
2023-03-07T10:09:11.928Z,8.70
2023-03-07T10:14:11.850Z,7.70
2023-03-07T10:19:11.780Z,7.40
2023-03-07T10:24:11.718Z,7.90
2023-03-07T10:29:11.650Z,9.00
2023-03-07T10:34:17.591Z,7.80
2023-03-07T10:39:12.518Z,9.20
2023-03-07T10:44:11.455Z,10.40
2023-03-07T10:49:11.396Z,9.40
2023-03-07T10:54:11.317Z,9.70
2023-03-07T10:59:11.309Z,8.80
2023-03-07T11:04:11.177Z,10.00
2023-03-07T11:09:11.136Z,8.50
2023-03-07T11:14:13.365Z,9.60
2023-03-07T11:19:10.990Z,8.70
2023-03-07T11:24:10.995Z,8.90
2023-03-07T11:29:10.880Z,8.20
2023-03-07T11:34:10.794Z,9.50
2023-03-07T11:39:10.735Z,8.60
2023-03-07T11:44:10.709Z,8.60
2023-03-07T11:49:10.604Z,8.40
2023-03-07T11:54:10.519Z,8.20
2023-03-07T11:59:10.479Z,8.50
2023-03-07T12:04:10.391Z,9.00
2023-03-07T12:09:10.352Z,10.20
2023-03-07T12:14:10.267Z,8.30
2023-03-07T12:19:10.198Z,9.20
2023-03-07T12:24:10.184Z,9.60
2023-03-07T12:29:10.085Z,10.90
2023-03-07T12:34:10.069Z,8.10
2023-03-07T12:39:09.932Z,10.20
2023-03-07T12:44:09.880Z,8.80
2023-03-07T12:49:09.842Z,10.50
2023-03-07T12:54:09.749Z,9.00
2023-03-07T12:59:09.669Z,9.80
2023-03-07T13:04:09.683Z,10.10
2023-03-07T13:09:09.536Z,9.10
2023-03-07T13:14:09.500Z,9.20
2023-03-07T13:19:09.440Z,8.00
2023-03-07T13:24:09.319Z,11.10
2023-03-07T13:29:09.283Z,7.80
2023-03-07T13:34:09.195Z,8.90
2023-03-07T13:39:09.144Z,10.50
2023-03-07T13:44:09.047Z,8.10
2023-03-07T13:49:09.168Z,8.00
2023-03-07T13:54:08.958Z,7.50
2023-03-07T13:59:08.893Z,10.90
2023-03-07T14:04:08.813Z,8.10
2023-03-07T14:09:08.934Z,9.80
2023-03-07T14:14:08.686Z,9.50
2023-03-07T14:19:08.605Z,7.50
2023-03-07T14:24:08.609Z,8.90
2023-03-07T14:29:08.551Z,10.50
2023-03-07T14:34:08.462Z,10.00
2023-03-07T14:39:08.375Z,10.20
2023-03-07T14:44:08.308Z,11.60
2023-03-07T14:49:08.275Z,12.50
2023-03-07T14:54:08.948Z,8.70
2023-03-07T14:59:10.838Z,10.60
2023-03-07T15:04:09.058Z,10.20
2023-03-07T15:09:08.138Z,9.10
2023-03-07T15:14:07.941Z,10.00
2023-03-07T15:19:07.836Z,8.10
2023-03-07T15:24:07.800Z,9.50
2023-03-07T15:29:07.753Z,8.10
2023-03-07T15:34:07.599Z,7.60
2023-03-07T15:39:07.533Z,7.70
2023-03-07T15:44:07.497Z,7.00
2023-03-07T15:49:08.390Z,5.80
2023-03-07T15:54:07.523Z,7.90
2023-03-07T15:59:07.352Z,8.10
2023-03-07T16:04:07.287Z,7.00
2023-03-07T16:09:07.232Z,6.80
2023-03-07T16:14:07.122Z,7.40
2023-03-07T16:19:07.041Z,7.40
2023-03-07T16:24:06.994Z,6.90
2023-03-07T16:29:06.907Z,7.90
2023-03-07T16:34:06.820Z,6.40
2023-03-07T16:39:06.783Z,8.90
2023-03-07T16:44:06.701Z,6.90
2023-03-07T16:49:06.650Z,7.40
2023-03-07T16:54:06.623Z,6.60
2023-03-07T16:59:06.479Z,7.80
2023-03-07T17:04:06.439Z,8.20
2023-03-07T17:09:06.371Z,9.20
2023-03-07T17:14:06.304Z,7.40
2023-03-07T17:19:06.228Z,9.00
2023-03-07T17:24:06.419Z,8.30
2023-03-07T17:29:06.103Z,9.70
2023-03-07T17:34:06.098Z,7.30
2023-03-07T17:39:06.981Z,7.70
2023-03-07T17:44:05.925Z,6.60
2023-03-07T17:49:06.147Z,7.00
2023-03-07T17:54:05.800Z,8.40
2023-03-07T17:59:05.711Z,6.10
2023-03-07T18:04:05.663Z,5.70
2023-03-07T18:09:05.601Z,6.00
2023-03-07T18:14:05.519Z,6.10
2023-03-07T18:19:06.893Z,3.60
2023-03-07T18:24:05.383Z,3.00
2023-03-07T18:29:05.313Z,4.30
2023-03-07T18:34:05.261Z,4.20
2023-03-07T18:39:05.211Z,4.10
2023-03-07T18:44:05.157Z,5.00
2023-03-07T18:49:05.139Z,5.10
2023-03-07T18:54:05.076Z,7.30
2023-03-07T18:59:04.945Z,6.40
2023-03-07T19:04:04.939Z,5.20
2023-03-07T19:09:04.834Z,5.40
2023-03-07T19:14:04.903Z,5.20
2023-03-07T19:19:04.719Z,5.20
2023-03-07T19:24:04.683Z,3.90
2023-03-07T19:29:04.542Z,4.30
2023-03-07T19:34:04.871Z,4.70
2023-03-07T19:39:04.420Z,5.00
2023-03-07T19:44:04.495Z,5.40
2023-03-07T19:49:04.282Z,6.00
2023-03-07T19:54:04.347Z,5.60
2023-03-07T19:59:04.163Z,6.30
2023-03-07T20:04:04.086Z,7.20
2023-03-07T20:09:04.051Z,8.50
2023-03-07T20:14:04.004Z,8.40
2023-03-07T20:19:04.064Z,6.40
2023-03-07T20:24:03.954Z,6.80
2023-03-07T20:29:03.901Z,7.40
2023-03-07T20:34:03.800Z,6.60
2023-03-07T20:39:03.774Z,6.70
2023-03-07T20:44:03.754Z,5.70
2023-03-07T20:49:03.546Z,5.30
2023-03-07T20:54:03.459Z,4.70
2023-03-07T20:59:03.389Z,5.50
2023-03-07T21:04:03.380Z,5.50
2023-03-07T21:09:03.296Z,5.90
2023-03-07T21:14:03.230Z,6.90
2023-03-07T21:19:03.108Z,6.90
2023-03-07T21:24:03.058Z,6.20
2023-03-07T21:29:02.968Z,7.30
2023-03-07T21:34:02.905Z,8.30
2023-03-07T21:39:02.916Z,7.00
2023-03-07T21:44:02.773Z,6.90
2023-03-07T21:49:02.790Z,8.10
2023-03-07T21:54:02.690Z,7.40
2023-03-07T21:59:02.646Z,6.70
2023-03-07T22:04:02.585Z,7.30
2023-03-07T22:09:02.463Z,7.00
2023-03-07T22:14:02.398Z,6.90
2023-03-07T22:19:02.388Z,8.10
2023-03-07T22:24:02.278Z,9.90
2023-03-07T22:29:02.240Z,8.60
2023-03-07T22:34:02.155Z,9.20
2023-03-07T22:39:02.067Z,10.50
2023-03-07T22:44:02.034Z,10.30
2023-03-07T22:49:01.947Z,11.00
2023-03-07T22:54:01.873Z,13.20
2023-03-07T22:59:01.877Z,12.70
2023-03-07T23:04:01.749Z,13.50
2023-03-07T23:09:01.708Z,8.80
2023-03-07T23:14:01.649Z,8.10
2023-03-07T23:19:01.605Z,6.60
2023-03-07T23:24:01.568Z,5.70
2023-03-07T23:29:01.460Z,5.60
2023-03-07T23:34:01.392Z,3.80
2023-03-07T23:39:01.280Z,3.00
2023-03-07T23:44:01.288Z,4.10
2023-03-07T23:49:01.228Z,5.10
2023-03-07T23:54:01.142Z,5.40
2023-03-07T23:59:01.095Z,4.80
